Terminal Aerodrome Forecast
Issued by NWS Pueblo, CO

Home | Current Version | Previous Version | Text Only | Print | Product List | Glossary On
Versions: 1 2 3 4 5 6 7 8 9 10 11 12 13 14 15 16 17 18 19 20 21 22 23 24 25 26 27 28 29 30
000
FTUS45 KPUB 220528
TAFCOS
TAF
KCOS 220528Z 2206/2306 02012KT P6SM VCTS BKN100CB
     FM220800 35008KT P6SM SCT080 BKN100
     FM221700 16010KT P6SM VCTS BKN060CB
     FM222100 33012KT P6SM VCTS BKN040CB=

USA.gov is the U.S. government's official web portal to all federal, state and local government web resources and services.